Mura Tz17521 — 138107 — position and weather

sailwx.info

Track history (hours):
 
Tides and Currents Weather Stations Pressure Air Temp Water Temp Dewpoint Dewpoint Depression Visibility Wind Speed Wind Dir Waves Ship Positions

Mura Tz17521

Last reported at 2018-Jun-18 13:42 UTC. Time now 2018-Jun-22 17:06 UTC.
Position N 48°11' E 016°28'.

Length 168 m; draft 1.7 m.

Type: Cargo ship. MMSI: 238812840.

Date/timePositionNaut miles runAvg speedWind from/ knotsBaromVisibWave heightAir tempDewpointWater temp
2018-Jun-18 13:42N 48°11' E 016°28'1 5.2
2018-Jun-18 13:30N 48°11' E 016°29'0 0.1
2018-Jun-18 12:36N 48°11' E 016°29'0 1.2
2018-Jun-18 12:22N 48°10' E 016°29'12 1.5
2018-Jun-18 04:06N 48°07' E 016°47'0 1.6
2018-Jun-18 03:53N 48°07' E 016°47'2 1.4
2018-Jun-18 02:10N 48°07' E 016°51'0 1.6
2018-Jun-18 02:00N 48°08' E 016°51'1 1.7
2018-Jun-18 01:20N 48°08' E 016°53'0 1.2
2018-Jun-18 01:00N 48°08' E 016°53'1 1.3
2018-Jun-18 00:30N 48°08' E 016°54'1 1.6
2018-Jun-18 00:00N 48°09' E 016°55'1 1.3
2018-Jun-17 23:30N 48°09' E 016°56'1 1.5
2018-Jun-17 23:00N 48°09' E 016°57'1 1.6
2018-Jun-17 22:30N 48°10' E 016°57'1 1.3
2018-Jun-17 22:01N 48°10' E 016°58'0 0.9
2018-Jun-17 21:28N 48°10' E 016°59'1 1.6
2018-Jun-17 21:01N 48°10' E 016°59'1 1.8
2018-Jun-17 20:30N 48°09' E 017°01'1 1.7
2018-Jun-17 20:01N 48°09' E 017°01'1 1.5
2018-Jun-17 19:30N 48°08' E 017°02'1 2.0
2018-Jun-17 19:00N 48°09' E 017°04'1 2.3
2018-Jun-17 18:30N 48°08' E 017°05'1 2.5
2018-Jun-17 18:00N 48°08' E 017°07'1 2.5
2018-Jun-17 17:30N 48°08' E 017°09'1 2.8
2018-Jun-17 17:00N 48°06' E 017°08'2 3.8
2018-Jun-17 16:30N 48°05' E 017°09'2 3.9
2018-Jun-17 15:59N 48°03' E 017°11'2 4.5
2018-Jun-17 15:30N 48°02' E 017°14'3 5.2
2018-Jun-17 15:00N 48°00' E 017°17'3 5.3
2018-Jun-17 14:30N 47°60' E 017°21'3 5.2
2018-Jun-17 14:00N 47°58' E 017°24'3 5.2
2018-Jun-17 13:30N 47°57' E 017°27'3 5.3
2018-Jun-17 13:00N 47°55' E 017°30'2 4.9
2018-Jun-17 12:30N 47°53' E 017°32'0 0.1
2018-Jun-17 11:57N 47°53' E 017°32'0 0.8
2018-Jun-17 11:30N 47°53' E 017°33'1 2.7
2018-Jun-17 11:00N 47°51' E 017°34'3 4.7
2018-Jun-17 10:25N 47°49' E 017°37'2 3.2
2018-Jun-17 09:53N 47°48' E 017°38'2 3.2
2018-Jun-17 09:23N 47°47' E 017°40'7 2.5
2018-Jun-17 06:47N 47°45' E 017°49'1 3.0
2018-Jun-17 06:29N 47°44' E 017°50'1 2.9
2018-Jun-17 06:00N 47°45' E 017°52'1 2.9
2018-Jun-17 05:30N 47°44' E 017°54'2 3.5
2018-Jun-17 04:56N 47°45' E 017°57'5 3.6
2018-Jun-17 03:38N 47°45' E 018°04'1 4.2
2018-Jun-17 03:30N 47°45' E 018°05'42 2.4
2018-Jun-16 10:11N 47°30' E 019°03'1 3.1
2018-Jun-16 10:00N 47°29' E 019°03'1 3.0
2018-Jun-16 09:30N 47°28' E 019°04'1 2.9
2018-Jun-16 09:01N 47°27' E 019°03'1 2.7
2018-Jun-16 08:29N 47°25' E 019°03'1 3.0
2018-Jun-16 08:01N 47°24' E 019°02'3 3.4
2018-Jun-16 07:11N 47°23' E 018°59'1 3.8
2018-Jun-16 06:48N 47°22' E 018°57'1 3.4
2018-Jun-16 06:30N 47°21' E 018°57'2 3.2
2018-Jun-16 05:49N 47°19' E 018°56'1 3.0
2018-Jun-16 05:28N 47°18' E 018°55'1 2.8
2018-Jun-16 04:57N 47°16' E 018°55'79 2.7
2018-Jun-14 23:58N 45°58' E 018°46'3 4.1
2018-Jun-14 23:16N 45°55' E 018°48'1 4.3
2018-Jun-14 23:00N 45°54' E 018°49'2 4.0
2018-Jun-14 22:31N 45°52' E 018°50'1 2.9
2018-Jun-14 22:00N 45°51' E 018°51'1 1.9
2018-Jun-14 21:30N 45°51' E 018°52'0 0.0
2018-Jun-14 21:00N 45°51' E 018°52'0 0.0
2018-Jun-14 20:30N 45°51' E 018°52'0 0.0
2018-Jun-14 19:54N 45°51' E 018°52'0 0.0
2018-Jun-14 19:30N 45°51' E 018°52'1 2.4
2018-Jun-14 19:01N 45°49' E 018°51'2 4.0
2018-Jun-14 18:30N 45°47' E 018°51'2 3.6
2018-Jun-14 18:00N 45°46' E 018°53'2 4.3
2018-Jun-14 17:31N 45°44' E 018°54'2 4.2
2018-Jun-14 17:01N 45°42' E 018°55'2 4.1
2018-Jun-14 16:31N 45°41' E 018°57'2 3.1
2018-Jun-14 16:01N 45°39' E 018°58'2 4.1
2018-Jun-14 15:31N 45°38' E 018°56'2 3.5
2018-Jun-14 15:01N 45°36' E 018°54'2 3.7
2018-Jun-14 14:31N 45°35' E 018°53'2 3.6
2018-Jun-14 14:00N 45°33' E 018°55'2 3.9
2018-Jun-14 13:31N 45°32' E 018°57'2 3.6
2018-Jun-14 13:01N 45°32' E 018°60'2 3.1
2018-Jun-14 12:31N 45°33' E 019°01'2 3.4
2018-Jun-14 12:01N 45°32' E 019°03'1 2.6
2018-Jun-14 11:31N 45°32' E 019°04'0 0.1
2018-Jun-14 11:01N 45°32' E 019°04'0 0.0
2018-Jun-14 10:31N 45°32' E 019°04'0 0.0
2018-Jun-14 10:01N 45°32' E 019°04'0 0.0
2018-Jun-14 09:31N 45°32' E 019°04'0 0.0
2018-Jun-14 09:01N 45°32' E 019°04'0 0.0
2018-Jun-14 08:31N 45°32' E 019°04'0 0.0
2018-Jun-14 08:01N 45°32' E 019°04'0 0.0
2018-Jun-14 07:31N 45°32' E 019°04'0 0.0
2018-Jun-14 07:01N 45°32' E 019°04'0 0.0
2018-Jun-14 06:31N 45°32' E 019°04'0 0.0
2018-Jun-14 06:01N 45°32' E 019°04'0 0.0
2018-Jun-14 05:31N 45°32' E 019°04'0 0.0
2018-Jun-14 05:01N 45°32' E 019°04'0 0.0
2018-Jun-14 04:31N 45°32' E 019°04'0 0.0
2018-Jun-14 04:01N 45°32' E 019°04'0 0.0
2018-Jun-14 03:31N 45°32' E 019°04'0 0.0
2018-Jun-14 03:01N 45°32' E 019°04'0 0.0
2018-Jun-14 02:31N 45°32' E 019°04'0 0.0
2018-Jun-14 02:01N 45°32' E 019°04'0 0.0
2018-Jun-14 01:31N 45°32' E 019°04'0 0.0
2018-Jun-14 01:01N 45°32' E 019°04'0 0.0
2018-Jun-14 00:31N 45°32' E 019°04'0 0.0
2018-Jun-14 00:01N 45°32' E 019°04'0 0.0
2018-Jun-13 23:31N 45°32' E 019°04'0 0.0
2018-Jun-13 23:01N 45°32' E 019°04'0 0.0
2018-Jun-13 22:31N 45°32' E 019°04'0 0.0
2018-Jun-13 22:01N 45°32' E 019°04'0 0.0
2018-Jun-13 21:31N 45°32' E 019°04'0 0.0
2018-Jun-13 21:01N 45°32' E 019°04'0 0.0
2018-Jun-13 20:31N 45°32' E 019°04'0 0.0
2018-Jun-13 20:01N 45°32' E 019°04'0 0.0
2018-Jun-13 19:31N 45°32' E 019°04'0 0.0
2018-Jun-13 19:01N 45°32' E 019°04'0 0.0
2018-Jun-13 18:31N 45°32' E 019°04'0 0.0
2018-Jun-13 18:01N 45°32' E 019°04'0 0.0
2018-Jun-13 17:31N 45°32' E 019°04'0 0.0
2018-Jun-13 17:01N 45°32' E 019°04'0 0.0
2018-Jun-13 16:31N 45°32' E 019°04'0 0.0
2018-Jun-13 16:01N 45°32' E 019°04'0 0.0
2018-Jun-13 15:31N 45°32' E 019°04'0 0.0
2018-Jun-13 15:01N 45°32' E 019°04'0 0.0
2018-Jun-13 14:30N 45°32' E 019°04'0 0.0
2018-Jun-13 14:01N 45°32' E 019°04'0 0.0
2018-Jun-13 13:31N 45°32' E 019°04'0 0.0
2018-Jun-13 13:01N 45°32' E 019°04'0 0.0
2018-Jun-13 12:31N 45°32' E 019°04'0 0.8
2018-Jun-13 12:01N 45°32' E 019°05'0 0.1
2018-Jun-13 11:31N 45°32' E 019°05'0 0.0
2018-Jun-13 11:01N 45°32' E 019°05'0 0.0
2018-Jun-13 10:31N 45°32' E 019°05'0 0.0
2018-Jun-13 10:01N 45°32' E 019°05'0 0.0
2018-Jun-13 09:31N 45°32' E 019°05'0 0.0
2018-Jun-13 09:00N 45°32' E 019°05'0 0.0
2018-Jun-13 08:30N 45°32' E 019°05'0 0.0
2018-Jun-13 08:00N 45°32' E 019°05'0 0.0
2018-Jun-13 07:31N 45°32' E 019°05'0 0.0
2018-Jun-13 07:00N 45°32' E 019°05'0 0.0
2018-Jun-13 06:31N 45°32' E 019°05'0 0.0
2018-Jun-13 06:01N 45°32' E 019°05'0 0.0
2018-Jun-13 05:31N 45°32' E 019°05'0 0.0
2018-Jun-13 05:01N 45°32' E 019°05'0 0.0
2018-Jun-13 04:31N 45°32' E 019°05'0 0.0
2018-Jun-13 04:01N 45°32' E 019°05'0 0.0
2018-Jun-13 03:30N 45°32' E 019°05'0 0.0
2018-Jun-13 03:01N 45°32' E 019°05'0 0.0
2018-Jun-13 02:31N 45°32' E 019°05'0 0.0
2018-Jun-13 02:01N 45°32' E 019°05'0 0.0
2018-Jun-13 01:31N 45°32' E 019°05'0 0.0
2018-Jun-13 01:01N 45°32' E 019°05'0 0.0
2018-Jun-13 00:31N 45°32' E 019°05'0 0.0
2018-Jun-13 00:01N 45°32' E 019°05'0 0.0
2018-Jun-12 23:31N 45°32' E 019°05'0 0.0
2018-Jun-12 23:00N 45°32' E 019°05'0 0.0
2018-Jun-12 22:30N 45°32' E 019°05'0 0.2
2018-Jun-12 22:01N 45°32' E 019°05'0 0.0
2018-Jun-12 21:30N 45°32' E 019°05'0 0.0
2018-Jun-12 21:01N 45°32' E 019°05'0 0.0
2018-Jun-12 20:31N 45°32' E 019°05'0 0.0
2018-Jun-12 20:01N 45°32' E 019°05'0 0.0
2018-Jun-12 19:31N 45°32' E 019°05'0 0.0
2018-Jun-12 19:01N 45°32' E 019°05'0 0.0
2018-Jun-12 18:31N 45°32' E 019°05'0 0.0
2018-Jun-12 18:01N 45°32' E 019°05'0 0.0
2018-Jun-12 17:30N 45°32' E 019°05'0 0.0
2018-Jun-12 17:01N 45°32' E 019°05'0 0.0
2018-Jun-12 16:31N 45°32' E 019°05'0 0.0
2018-Jun-12 16:01N 45°32' E 019°05'0 0.0
2018-Jun-12 15:31N 45°32' E 019°05'0 0.0
2018-Jun-12 15:00N 45°32' E 019°05'0 0.0
2018-Jun-12 14:31N 45°32' E 019°05'0 0.0
2018-Jun-12 14:01N 45°32' E 019°05'0 0.0
2018-Jun-12 13:31N 45°32' E 019°05'0 0.0
2018-Jun-12 13:00N 45°32' E 019°05'0 0.0
2018-Jun-12 12:31N 45°32' E 019°05'0 0.0
2018-Jun-12 12:01N 45°32' E 019°05'0 0.0
2018-Jun-12 11:31N 45°32' E 019°05'0 0.0
2018-Jun-12 11:01N 45°32' E 019°05'0 0.0
2018-Jun-12 10:31N 45°32' E 019°05'0 0.0
2018-Jun-12 10:00N 45°32' E 019°05'0 0.0
2018-Jun-12 09:31N 45°32' E 019°05'0 0.0
2018-Jun-12 09:01N 45°32' E 019°05'0 0.0
2018-Jun-12 08:30N 45°32' E 019°05'0 0.0
2018-Jun-12 08:00N 45°32' E 019°05'0 0.0
2018-Jun-12 07:31N 45°32' E 019°05'0 0.0
2018-Jun-12 07:00N 45°32' E 019°05'0 0.0
2018-Jun-12 06:31N 45°32' E 019°05'0 0.0
2018-Jun-12 06:01N 45°32' E 019°05'0 0.0
2018-Jun-12 05:31N 45°32' E 019°05'0 0.0
2018-Jun-12 05:01N 45°32' E 019°05'0 0.0
2018-Jun-12 04:31N 45°32' E 019°05'0 0.0
2018-Jun-12 04:01N 45°32' E 019°05'0 0.0
2018-Jun-12 03:31N 45°32' E 019°05'0 0.0
2018-Jun-12 03:01N 45°32' E 019°05'0 0.0
2018-Jun-12 02:31N 45°32' E 019°05'0 0.0
2018-Jun-12 02:01N 45°32' E 019°05'0 0.0
2018-Jun-12 01:31N 45°32' E 019°05'0 0.0
2018-Jun-12 01:01N 45°32' E 019°05'0 0.0
2018-Jun-12 00:31N 45°32' E 019°05'0 0.0
2018-Jun-12 00:01N 45°32' E 019°05'0 0.0
2018-Jun-11 23:31N 45°32' E 019°05'0 0.0
2018-Jun-11 23:01N 45°32' E 019°05'0 0.0
2018-Jun-11 22:31N 45°32' E 019°05'0 0.0
2018-Jun-11 22:01N 45°32' E 019°05'0 0.0
2018-Jun-11 21:30N 45°32' E 019°05'0 0.0
2018-Jun-11 21:00N 45°32' E 019°05'0 0.0
2018-Jun-11 20:30N 45°32' E 019°05'0 0.0
2018-Jun-11 20:01N 45°32' E 019°05'0 0.0
2018-Jun-11 19:31N 45°32' E 019°05'0 0.0
2018-Jun-11 19:01N 45°32' E 019°05'0 0.0
2018-Jun-11 18:30N 45°32' E 019°05'0 0.0
2018-Jun-11 18:01N 45°32' E 019°05'0 0.0
2018-Jun-11 17:31N 45°32' E 019°05'0 0.0
2018-Jun-11 17:01N 45°32' E 019°05'0 0.0
2018-Jun-11 16:30N 45°32' E 019°05'0 0.0
2018-Jun-11 16:01N 45°32' E 019°05'0 0.0
2018-Jun-11 15:30N 45°32' E 019°05'0 0.0
2018-Jun-11 15:00N 45°32' E 019°05'0 0.0
2018-Jun-11 14:31N 45°32' E 019°05'0 0.0
2018-Jun-11 14:01N 45°32' E 019°05'0 0.0
2018-Jun-11 13:31N 45°32' E 019°05'0 0.0
2018-Jun-11 13:01N 45°32' E 019°05'0 0.0
2018-Jun-11 12:31N 45°32' E 019°05'0 0.0
2018-Jun-11 12:01N 45°32' E 019°05'0 0.0
2018-Jun-11 11:31N 45°32' E 019°05'0 0.0
2018-Jun-11 11:01N 45°32' E 019°05'0 0.0
2018-Jun-11 10:31N 45°32' E 019°05'0 0.0
2018-Jun-11 10:01N 45°32' E 019°05'0 0.0
2018-Jun-11 09:30N 45°32' E 019°05'0 0.0
2018-Jun-11 09:01N 45°32' E 019°05'0 0.0
2018-Jun-11 08:31N 45°32' E 019°05'0 0.0
2018-Jun-11 08:01N 45°32' E 019°05'36 1.0
2018-Jun-09 18:19N 45°16' E 019°52'1 3.3
2018-Jun-09 18:00N 45°16' E 019°53'1 2.4
2018-Jun-09 17:30N 45°15' E 019°51'0 0.0
2018-Jun-09 17:00N 45°15' E 019°51'0 0.0
2018-Jun-09 16:30N 45°15' E 019°51'0 0.0
2018-Jun-09 16:00N 45°15' E 019°51'0 0.0
2018-Jun-09 15:00N 45°15' E 019°51'0 0.0
2018-Jun-09 14:30N 45°15' E 019°51'0 0.0
2018-Jun-09 14:00N 45°15' E 019°51'0 0.0
2018-Jun-09 13:30N 45°15' E 019°51'1 1.0
2018-Jun-09 13:00N 45°16' E 019°52'1 1.2
2018-Jun-09 12:30N 45°16' E 019°51'0 0.0
2018-Jun-09 12:00N 45°16' E 019°51'0 0.0
2018-Jun-09 11:30N 45°16' E 019°51'0 0.0
2018-Jun-09 11:00N 45°16' E 019°51'0 0.0
2018-Jun-09 10:30N 45°16' E 019°51'0 0.3
2018-Jun-09 10:00N 45°16' E 019°52'1 2.0
2018-Jun-09 09:30N 45°15' E 019°51'0 0.0
2018-Jun-09 09:00N 45°15' E 019°51'0 0.0
2018-Jun-09 08:30N 45°15' E 019°51'0 0.0
2018-Jun-09 08:00N 45°15' E 019°51'0 0.0
2018-Jun-09 07:31N 45°15' E 019°51'0 0.0
2018-Jun-09 07:00N 45°15' E 019°51'0 0.0
2018-Jun-09 06:30N 45°15' E 019°51'0 0.0
2018-Jun-09 06:00N 45°15' E 019°51'1 1.4
2018-Jun-09 05:30N 45°16' E 019°52'1 2.9
2018-Jun-09 05:00N 45°15' E 019°54'2 4.6
2018-Jun-09 04:30N 45°13' E 019°56'2 4.8
2018-Jun-09 04:00N 45°12' E 019°58'2 4.7
2018-Jun-09 03:30N 45°11' E 020°01'2 4.7
2018-Jun-09 03:00N 45°10' E 020°04'2 4.4
2018-Jun-09 02:30N 45°10' E 020°07'2 4.4
2018-Jun-09 02:00N 45°11' E 020°10'2 4.3
2018-Jun-09 01:31N 45°10' E 020°13'2 4.6
2018-Jun-09 01:00N 45°09' E 020°15'2 4.6
2018-Jun-09 00:30N 45°07' E 020°17'2 4.4
2018-Jun-09 00:00N 45°05' E 020°19'2 4.7
2018-Jun-08 23:30N 45°03' E 020°21'2 4.8
2018-Jun-08 23:00N 45°01' E 020°22'2 3.9
2018-Jun-08 22:30N 44°60' E 020°20'2 4.4
2018-Jun-08 22:00N 44°59' E 020°17'2 4.6
2018-Jun-08 21:31N 44°56' E 020°18'2 4.9
2018-Jun-08 21:00N 44°54' E 020°20'3 5.3
2018-Jun-08 20:31N 44°52' E 020°22'2 5.0
2018-Jun-08 20:00N 44°51' E 020°25'3 5.3
2018-Jun-08 19:31N 44°50' E 020°29'3 5.4
2018-Jun-08 19:01N 44°50' E 020°32'3 5.3
2018-Jun-08 18:31N 44°51' E 020°36'2 4.9
2018-Jun-08 18:01N 44°50' E 020°39'3 5.2
2018-Jun-08 17:30N 44°47' E 020°38'3 5.2
2018-Jun-08 17:01N 44°45' E 020°39'3 5.4
2018-Jun-08 16:31N 44°43' E 020°41'3 5.4
2018-Jun-08 16:00N 44°41' E 020°44'3 5.4
2018-Jun-08 15:31N 44°40' E 020°47'2 4.6
2018-Jun-08 15:00N 44°40' E 020°50'3 5.6
2018-Jun-08 14:31N 44°40' E 020°54'1 1.2
2018-Jun-08 14:00N 44°40' E 020°55'  
Track history (hours):
 
Tides and Currents Weather Stations Pressure Air Temp Water Temp Dewpoint Dewpoint Depression Visibility Wind Speed Wind Dir Waves Ship Positions

Mura Tz17521

Last reported at 2018-Jun-18 13:42 UTC. Time now 2018-Jun-22 17:06 UTC.
Position N 48°11' E 016°28'.

Length 168 m; draft 1.7 m.

Type: Cargo ship. MMSI: 238812840.

Date/timePositionNaut miles runAvg speedWind from/ knotsBaromVisibWave heightAir tempDewpointWater temp
2018-Jun-18 13:42N 48°11' E 016°28'1 5.2
2018-Jun-18 13:30N 48°11' E 016°29'0 0.1
2018-Jun-18 12:36N 48°11' E 016°29'0 1.2
2018-Jun-18 12:22N 48°10' E 016°29'12 1.5
2018-Jun-18 04:06N 48°07' E 016°47'0 1.6
2018-Jun-18 03:53N 48°07' E 016°47'2 1.4
2018-Jun-18 02:10N 48°07' E 016°51'0 1.6
2018-Jun-18 02:00N 48°08' E 016°51'1 1.7
2018-Jun-18 01:20N 48°08' E 016°53'0 1.2
2018-Jun-18 01:00N 48°08' E 016°53'1 1.3
2018-Jun-18 00:30N 48°08' E 016°54'1 1.6
2018-Jun-18 00:00N 48°09' E 016°55'1 1.3
2018-Jun-17 23:30N 48°09' E 016°56'1 1.5
2018-Jun-17 23:00N 48°09' E 016°57'1 1.6
2018-Jun-17 22:30N 48°10' E 016°57'1 1.3
2018-Jun-17 22:01N 48°10' E 016°58'0 0.9
2018-Jun-17 21:28N 48°10' E 016°59'1 1.6
2018-Jun-17 21:01N 48°10' E 016°59'1 1.8
2018-Jun-17 20:30N 48°09' E 017°01'1 1.7
2018-Jun-17 20:01N 48°09' E 017°01'1 1.5
2018-Jun-17 19:30N 48°08' E 017°02'1 2.0
2018-Jun-17 19:00N 48°09' E 017°04'1 2.3
2018-Jun-17 18:30N 48°08' E 017°05'1 2.5
2018-Jun-17 18:00N 48°08' E 017°07'1 2.5
2018-Jun-17 17:30N 48°08' E 017°09'1 2.8
2018-Jun-17 17:00N 48°06' E 017°08'2 3.8
2018-Jun-17 16:30N 48°05' E 017°09'2 3.9
2018-Jun-17 15:59N 48°03' E 017°11'2 4.5
2018-Jun-17 15:30N 48°02' E 017°14'3 5.2
2018-Jun-17 15:00N 48°00' E 017°17'3 5.3
2018-Jun-17 14:30N 47°60' E 017°21'3 5.2
2018-Jun-17 14:00N 47°58' E 017°24'3 5.2
2018-Jun-17 13:30N 47°57' E 017°27'3 5.3
2018-Jun-17 13:00N 47°55' E 017°30'2 4.9
2018-Jun-17 12:30N 47°53' E 017°32'0 0.1
2018-Jun-17 11:57N 47°53' E 017°32'0 0.8
2018-Jun-17 11:30N 47°53' E 017°33'1 2.7
2018-Jun-17 11:00N 47°51' E 017°34'3 4.7
2018-Jun-17 10:25N 47°49' E 017°37'2 3.2
2018-Jun-17 09:53N 47°48' E 017°38'2 3.2
2018-Jun-17 09:23N 47°47' E 017°40'7 2.5
2018-Jun-17 06:47N 47°45' E 017°49'1 3.0
2018-Jun-17 06:29N 47°44' E 017°50'1 2.9
2018-Jun-17 06:00N 47°45' E 017°52'1 2.9
2018-Jun-17 05:30N 47°44' E 017°54'2 3.5
2018-Jun-17 04:56N 47°45' E 017°57'5 3.6
2018-Jun-17 03:38N 47°45' E 018°04'1 4.2
2018-Jun-17 03:30N 47°45' E 018°05'42 2.4
2018-Jun-16 10:11N 47°30' E 019°03'1 3.1
2018-Jun-16 10:00N 47°29' E 019°03'1 3.0
2018-Jun-16 09:30N 47°28' E 019°04'1 2.9
2018-Jun-16 09:01N 47°27' E 019°03'1 2.7
2018-Jun-16 08:29N 47°25' E 019°03'1 3.0
2018-Jun-16 08:01N 47°24' E 019°02'3 3.4
2018-Jun-16 07:11N 47°23' E 018°59'1 3.8
2018-Jun-16 06:48N 47°22' E 018°57'1 3.4
2018-Jun-16 06:30N 47°21' E 018°57'2 3.2
2018-Jun-16 05:49N 47°19' E 018°56'1 3.0
2018-Jun-16 05:28N 47°18' E 018°55'1 2.8
2018-Jun-16 04:57N 47°16' E 018°55'79 2.7
2018-Jun-14 23:58N 45°58' E 018°46'3 4.1
2018-Jun-14 23:16N 45°55' E 018°48'1 4.3
2018-Jun-14 23:00N 45°54' E 018°49'2 4.0
2018-Jun-14 22:31N 45°52' E 018°50'1 2.9
2018-Jun-14 22:00N 45°51' E 018°51'1 1.9
2018-Jun-14 21:30N 45°51' E 018°52'0 0.0
2018-Jun-14 21:00N 45°51' E 018°52'0 0.0
2018-Jun-14 20:30N 45°51' E 018°52'0 0.0
2018-Jun-14 19:54N 45°51' E 018°52'0 0.0
2018-Jun-14 19:30N 45°51' E 018°52'1 2.4
2018-Jun-14 19:01N 45°49' E 018°51'2 4.0
2018-Jun-14 18:30N 45°47' E 018°51'2 3.6
2018-Jun-14 18:00N 45°46' E 018°53'2 4.3
2018-Jun-14 17:31N 45°44' E 018°54'2 4.2
2018-Jun-14 17:01N 45°42' E 018°55'2 4.1
2018-Jun-14 16:31N 45°41' E 018°57'2 3.1
2018-Jun-14 16:01N 45°39' E 018°58'2 4.1
2018-Jun-14 15:31N 45°38' E 018°56'2 3.5
2018-Jun-14 15:01N 45°36' E 018°54'2 3.7
2018-Jun-14 14:31N 45°35' E 018°53'2 3.6
2018-Jun-14 14:00N 45°33' E 018°55'2 3.9
2018-Jun-14 13:31N 45°32' E 018°57'2 3.6
2018-Jun-14 13:01N 45°32' E 018°60'2 3.1
2018-Jun-14 12:31N 45°33' E 019°01'2 3.4
2018-Jun-14 12:01N 45°32' E 019°03'1 2.6
2018-Jun-14 11:31N 45°32' E 019°04'0 0.1
2018-Jun-14 11:01N 45°32' E 019°04'0 0.0
2018-Jun-14 10:31N 45°32' E 019°04'0 0.0
2018-Jun-14 10:01N 45°32' E 019°04'0 0.0
2018-Jun-14 09:31N 45°32' E 019°04'0 0.0
2018-Jun-14 09:01N 45°32' E 019°04'0 0.0
2018-Jun-14 08:31N 45°32' E 019°04'0 0.0
2018-Jun-14 08:01N 45°32' E 019°04'0 0.0
2018-Jun-14 07:31N 45°32' E 019°04'0 0.0
2018-Jun-14 07:01N 45°32' E 019°04'0 0.0
2018-Jun-14 06:31N 45°32' E 019°04'0 0.0
2018-Jun-14 06:01N 45°32' E 019°04'0 0.0
2018-Jun-14 05:31N 45°32' E 019°04'0 0.0
2018-Jun-14 05:01N 45°32' E 019°04'0 0.0
2018-Jun-14 04:31N 45°32' E 019°04'0 0.0
2018-Jun-14 04:01N 45°32' E 019°04'0 0.0
2018-Jun-14 03:31N 45°32' E 019°04'0 0.0
2018-Jun-14 03:01N 45°32' E 019°04'0 0.0
2018-Jun-14 02:31N 45°32' E 019°04'0 0.0
2018-Jun-14 02:01N 45°32' E 019°04'0 0.0
2018-Jun-14 01:31N 45°32' E 019°04'0 0.0
2018-Jun-14 01:01N 45°32' E 019°04'0 0.0
2018-Jun-14 00:31N 45°32' E 019°04'0 0.0
2018-Jun-14 00:01N 45°32' E 019°04'0 0.0
2018-Jun-13 23:31N 45°32' E 019°04'0 0.0
2018-Jun-13 23:01N 45°32' E 019°04'0 0.0
2018-Jun-13 22:31N 45°32' E 019°04'0 0.0
2018-Jun-13 22:01N 45°32' E 019°04'0 0.0
2018-Jun-13 21:31N 45°32' E 019°04'0 0.0
2018-Jun-13 21:01N 45°32' E 019°04'0 0.0
2018-Jun-13 20:31N 45°32' E 019°04'0 0.0
2018-Jun-13 20:01N 45°32' E 019°04'0 0.0
2018-Jun-13 19:31N 45°32' E 019°04'0 0.0
2018-Jun-13 19:01N 45°32' E 019°04'0 0.0
2018-Jun-13 18:31N 45°32' E 019°04'0 0.0
2018-Jun-13 18:01N 45°32' E 019°04'0 0.0
2018-Jun-13 17:31N 45°32' E 019°04'0 0.0
2018-Jun-13 17:01N 45°32' E 019°04'0 0.0
2018-Jun-13 16:31N 45°32' E 019°04'0 0.0
2018-Jun-13 16:01N 45°32' E 019°04'0 0.0
2018-Jun-13 15:31N 45°32' E 019°04'0 0.0
2018-Jun-13 15:01N 45°32' E 019°04'0 0.0
2018-Jun-13 14:30N 45°32' E 019°04'0 0.0
2018-Jun-13 14:01N 45°32' E 019°04'0 0.0
2018-Jun-13 13:31N 45°32' E 019°04'0 0.0
2018-Jun-13 13:01N 45°32' E 019°04'0 0.0
2018-Jun-13 12:31N 45°32' E 019°04'0 0.8
2018-Jun-13 12:01N 45°32' E 019°05'0 0.1
2018-Jun-13 11:31N 45°32' E 019°05'0 0.0
2018-Jun-13 11:01N 45°32' E 019°05'0 0.0
2018-Jun-13 10:31N 45°32' E 019°05'0 0.0
2018-Jun-13 10:01N 45°32' E 019°05'0 0.0
2018-Jun-13 09:31N 45°32' E 019°05'0 0.0
2018-Jun-13 09:00N 45°32' E 019°05'0 0.0
2018-Jun-13 08:30N 45°32' E 019°05'0 0.0
2018-Jun-13 08:00N 45°32' E 019°05'0 0.0
2018-Jun-13 07:31N 45°32' E 019°05'0 0.0
2018-Jun-13 07:00N 45°32' E 019°05'0 0.0
2018-Jun-13 06:31N 45°32' E 019°05'0 0.0
2018-Jun-13 06:01N 45°32' E 019°05'0 0.0
2018-Jun-13 05:31N 45°32' E 019°05'0 0.0
2018-Jun-13 05:01N 45°32' E 019°05'0 0.0
2018-Jun-13 04:31N 45°32' E 019°05'0 0.0
2018-Jun-13 04:01N 45°32' E 019°05'0 0.0
2018-Jun-13 03:30N 45°32' E 019°05'0 0.0
2018-Jun-13 03:01N 45°32' E 019°05'0 0.0
2018-Jun-13 02:31N 45°32' E 019°05'0 0.0
2018-Jun-13 02:01N 45°32' E 019°05'0 0.0
2018-Jun-13 01:31N 45°32' E 019°05'0 0.0
2018-Jun-13 01:01N 45°32' E 019°05'0 0.0
2018-Jun-13 00:31N 45°32' E 019°05'0 0.0
2018-Jun-13 00:01N 45°32' E 019°05'0 0.0
2018-Jun-12 23:31N 45°32' E 019°05'0 0.0
2018-Jun-12 23:00N 45°32' E 019°05'0 0.0
2018-Jun-12 22:30N 45°32' E 019°05'0 0.2
2018-Jun-12 22:01N 45°32' E 019°05'0 0.0
2018-Jun-12 21:30N 45°32' E 019°05'0 0.0
2018-Jun-12 21:01N 45°32' E 019°05'0 0.0
2018-Jun-12 20:31N 45°32' E 019°05'0 0.0
2018-Jun-12 20:01N 45°32' E 019°05'0 0.0
2018-Jun-12 19:31N 45°32' E 019°05'0 0.0
2018-Jun-12 19:01N 45°32' E 019°05'0 0.0
2018-Jun-12 18:31N 45°32' E 019°05'0 0.0
2018-Jun-12 18:01N 45°32' E 019°05'0 0.0
2018-Jun-12 17:30N 45°32' E 019°05'0 0.0
2018-Jun-12 17:01N 45°32' E 019°05'0 0.0
2018-Jun-12 16:31N 45°32' E 019°05'0 0.0
2018-Jun-12 16:01N 45°32' E 019°05'0 0.0
2018-Jun-12 15:31N 45°32' E 019°05'0 0.0
2018-Jun-12 15:00N 45°32' E 019°05'0 0.0
2018-Jun-12 14:31N 45°32' E 019°05'0 0.0
2018-Jun-12 14:01N 45°32' E 019°05'0 0.0
2018-Jun-12 13:31N 45°32' E 019°05'0 0.0
2018-Jun-12 13:00N 45°32' E 019°05'0 0.0
2018-Jun-12 12:31N 45°32' E 019°05'0 0.0
2018-Jun-12 12:01N 45°32' E 019°05'0 0.0
2018-Jun-12 11:31N 45°32' E 019°05'0 0.0
2018-Jun-12 11:01N 45°32' E 019°05'0 0.0
2018-Jun-12 10:31N 45°32' E 019°05'0 0.0
2018-Jun-12 10:00N 45°32' E 019°05'0 0.0
2018-Jun-12 09:31N 45°32' E 019°05'0 0.0
2018-Jun-12 09:01N 45°32' E 019°05'0 0.0
2018-Jun-12 08:30N 45°32' E 019°05'0 0.0
2018-Jun-12 08:00N 45°32' E 019°05'0 0.0
2018-Jun-12 07:31N 45°32' E 019°05'0 0.0
2018-Jun-12 07:00N 45°32' E 019°05'0 0.0
2018-Jun-12 06:31N 45°32' E 019°05'0 0.0
2018-Jun-12 06:01N 45°32' E 019°05'0 0.0
2018-Jun-12 05:31N 45°32' E 019°05'0 0.0
2018-Jun-12 05:01N 45°32' E 019°05'0 0.0
2018-Jun-12 04:31N 45°32' E 019°05'0 0.0
2018-Jun-12 04:01N 45°32' E 019°05'0 0.0
2018-Jun-12 03:31N 45°32' E 019°05'0 0.0
2018-Jun-12 03:01N 45°32' E 019°05'0 0.0
2018-Jun-12 02:31N 45°32' E 019°05'0 0.0
2018-Jun-12 02:01N 45°32' E 019°05'0 0.0
2018-Jun-12 01:31N 45°32' E 019°05'0 0.0
2018-Jun-12 01:01N 45°32' E 019°05'0 0.0
2018-Jun-12 00:31N 45°32' E 019°05'0 0.0
2018-Jun-12 00:01N 45°32' E 019°05'0 0.0
2018-Jun-11 23:31N 45°32' E 019°05'0 0.0
2018-Jun-11 23:01N 45°32' E 019°05'0 0.0
2018-Jun-11 22:31N 45°32' E 019°05'0 0.0
2018-Jun-11 22:01N 45°32' E 019°05'0 0.0
2018-Jun-11 21:30N 45°32' E 019°05'0 0.0
2018-Jun-11 21:00N 45°32' E 019°05'0 0.0
2018-Jun-11 20:30N 45°32' E 019°05'0 0.0
2018-Jun-11 20:01N 45°32' E 019°05'0 0.0
2018-Jun-11 19:31N 45°32' E 019°05'0 0.0
2018-Jun-11 19:01N 45°32' E 019°05'0 0.0
2018-Jun-11 18:30N 45°32' E 019°05'0 0.0
2018-Jun-11 18:01N 45°32' E 019°05'0 0.0
2018-Jun-11 17:31N 45°32' E 019°05'0 0.0
2018-Jun-11 17:01N 45°32' E 019°05'0 0.0
2018-Jun-11 16:30N 45°32' E 019°05'0 0.0
2018-Jun-11 16:01N 45°32' E 019°05'0 0.0
2018-Jun-11 15:30N 45°32' E 019°05'0 0.0
2018-Jun-11 15:00N 45°32' E 019°05'0 0.0
2018-Jun-11 14:31N 45°32' E 019°05'0 0.0
2018-Jun-11 14:01N 45°32' E 019°05'0 0.0
2018-Jun-11 13:31N 45°32' E 019°05'0 0.0
2018-Jun-11 13:01N 45°32' E 019°05'0 0.0
2018-Jun-11 12:31N 45°32' E 019°05'0 0.0
2018-Jun-11 12:01N 45°32' E 019°05'0 0.0
2018-Jun-11 11:31N 45°32' E 019°05'0 0.0
2018-Jun-11 11:01N 45°32' E 019°05'0 0.0
2018-Jun-11 10:31N 45°32' E 019°05'0 0.0
2018-Jun-11 10:01N 45°32' E 019°05'0 0.0
2018-Jun-11 09:30N 45°32' E 019°05'0 0.0
2018-Jun-11 09:01N 45°32' E 019°05'0 0.0
2018-Jun-11 08:31N 45°32' E 019°05'0 0.0
2018-Jun-11 08:01N 45°32' E 019°05'36 1.0
2018-Jun-09 18:19N 45°16' E 019°52'1 3.3
2018-Jun-09 18:00N 45°16' E 019°53'1 2.4
2018-Jun-09 17:30N 45°15' E 019°51'0 0.0
2018-Jun-09 17:00N 45°15' E 019°51'0 0.0
2018-Jun-09 16:30N 45°15' E 019°51'0 0.0
2018-Jun-09 16:00N 45°15' E 019°51'0 0.0
2018-Jun-09 15:00N 45°15' E 019°51'0 0.0
2018-Jun-09 14:30N 45°15' E 019°51'0 0.0
2018-Jun-09 14:00N 45°15' E 019°51'0 0.0
2018-Jun-09 13:30N 45°15' E 019°51'1 1.0
2018-Jun-09 13:00N 45°16' E 019°52'1 1.2
2018-Jun-09 12:30N 45°16' E 019°51'0 0.0
2018-Jun-09 12:00N 45°16' E 019°51'0 0.0
2018-Jun-09 11:30N 45°16' E 019°51'0 0.0
2018-Jun-09 11:00N 45°16' E 019°51'0 0.0
2018-Jun-09 10:30N 45°16' E 019°51'0 0.3
2018-Jun-09 10:00N 45°16' E 019°52'1 2.0
2018-Jun-09 09:30N 45°15' E 019°51'0 0.0
2018-Jun-09 09:00N 45°15' E 019°51'0 0.0
2018-Jun-09 08:30N 45°15' E 019°51'0 0.0
2018-Jun-09 08:00N 45°15' E 019°51'0 0.0
2018-Jun-09 07:31N 45°15' E 019°51'0 0.0
2018-Jun-09 07:00N 45°15' E 019°51'0 0.0
2018-Jun-09 06:30N 45°15' E 019°51'0 0.0
2018-Jun-09 06:00N 45°15' E 019°51'1 1.4
2018-Jun-09 05:30N 45°16' E 019°52'1 2.9
2018-Jun-09 05:00N 45°15' E 019°54'2 4.6
2018-Jun-09 04:30N 45°13' E 019°56'2 4.8
2018-Jun-09 04:00N 45°12' E 019°58'2 4.7
2018-Jun-09 03:30N 45°11' E 020°01'2 4.7
2018-Jun-09 03:00N 45°10' E 020°04'2 4.4
2018-Jun-09 02:30N 45°10' E 020°07'2 4.4
2018-Jun-09 02:00N 45°11' E 020°10'2 4.3
2018-Jun-09 01:31N 45°10' E 020°13'2 4.6
2018-Jun-09 01:00N 45°09' E 020°15'2 4.6
2018-Jun-09 00:30N 45°07' E 020°17'2 4.4
2018-Jun-09 00:00N 45°05' E 020°19'2 4.7
2018-Jun-08 23:30N 45°03' E 020°21'2 4.8
2018-Jun-08 23:00N 45°01' E 020°22'2 3.9
2018-Jun-08 22:30N 44°60' E 020°20'2 4.4
2018-Jun-08 22:00N 44°59' E 020°17'2 4.6
2018-Jun-08 21:31N 44°56' E 020°18'2 4.9
2018-Jun-08 21:00N 44°54' E 020°20'3 5.3
2018-Jun-08 20:31N 44°52' E 020°22'2 5.0
2018-Jun-08 20:00N 44°51' E 020°25'3 5.3
2018-Jun-08 19:31N 44°50' E 020°29'3 5.4
2018-Jun-08 19:01N 44°50' E 020°32'3 5.3
2018-Jun-08 18:31N 44°51' E 020°36'2 4.9
2018-Jun-08 18:01N 44°50' E 020°39'3 5.2
2018-Jun-08 17:30N 44°47' E 020°38'3 5.2
2018-Jun-08 17:01N 44°45' E 020°39'3 5.4
2018-Jun-08 16:31N 44°43' E 020°41'3 5.4
2018-Jun-08 16:00N 44°41' E 020°44'3 5.4
2018-Jun-08 15:31N 44°40' E 020°47'2 4.6
2018-Jun-08 15:00N 44°40' E 020°50'3 5.6
2018-Jun-08 14:31N 44°40' E 020°54'1 1.2
2018-Jun-08 14:00N 44°40' E 020°55'  

Dump ship's entire track history